Time;durP1;ratioP1;P1;durP2;ratioP2;P2;SDS_P1;SDS_P2;PMS_P1;PMS_P2;Temp;Humidity;BMP_temperature;BMP_pressure;BME280_temperature;BME280_humidity;BME280_pressure;Samples;Min_cycle;Max_cycle;Signal;HPM_P1;HPM_P2
2023/08/17 00:00:05;;;;;;;5.23;3.93;;;;;;;-143.84;65.55;45009.09;5070017;28;21068;-55
2023/08/17 00:02:34;;;;;;;5.67;4.07;;;;;;;-143.84;65.56;45041.44;5069978;28;20437;-55
2023/08/17 00:05:01;;;;;;;8.77;4.40;;;;;;;-143.84;65.59;45035.75;5069983;28;20453;-55
2023/08/17 00:07:28;;;;;;;6.30;3.87;;;;;;;-143.84;65.42;45022.41;5070045;28;20543;-55
2023/08/17 00:09:55;;;;;;;8.40;4.10;;;;;;;-143.84;64.60;45018.59;5069905;28;20433;-55
2023/08/17 00:12:23;;;;;;;16.10;4.40;;;;;;;-143.84;64.32;45039.53;5069967;28;20441;-55
2023/08/17 00:14:50;;;;;;;5.23;3.80;;;;;;;-143.84;64.26;45024.31;5069730;28;20469;-55
2023/08/17 00:17:17;;;;;;;5.30;3.60;;;;;;;-143.84;63.75;45012.88;5069803;28;20946;-52
2023/08/17 00:19:46;;;;;;;7.07;3.67;;;;;;;-143.84;63.25;45054.78;5069657;28;20471;-52
2023/08/17 00:22:13;;;;;;;4.57;3.30;;;;;;;-143.84;62.83;45020.50;5070286;28;20441;-50
2023/08/17 00:24:41;;;;;;;4.40;3.40;;;;;;;-143.84;62.77;45045.25;5070219;28;20444;-52
2023/08/17 00:27:08;;;;;;;5.80;3.70;;;;;;;-143.84;62.69;45005.28;5069831;28;20452;-51
2023/08/17 00:29:36;;;;;;;4.40;4.00;;;;;;;-143.84;63.00;45035.75;5070297;28;20428;-51
2023/08/17 00:32:03;;;;;;;11.20;4.17;;;;;;;-143.84;62.73;45030.03;5070084;28;20436;-52
2023/08/17 00:34:30;;;;;;;6.13;4.00;;;;;;;-143.84;63.06;45031.94;5069880;28;20479;-52
2023/08/17 00:36:59;;;;;;;8.87;3.90;;;;;;;-143.84;63.24;45005.28;5069950;28;20437;-51
2023/08/17 00:39:26;;;;;;;7.17;3.60;;;;;;;-143.84;63.19;45030.03;5069937;28;20953;-52
2023/08/17 00:41:53;;;;;;;4.43;3.10;;;;;;;-143.84;63.07;45024.31;5069831;28;20470;-52
2023/08/17 00:44:20;;;;;;;4.20;3.20;;;;;;;-143.84;62.91;45039.53;5069573;28;20436;-53
2023/08/17 00:46:47;;;;;;;6.50;3.87;;;;;;;-143.84;62.86;45022.41;5069563;28;20436;-52
2023/08/17 00:49:15;;;;;;;7.73;3.83;;;;;;;-143.84;63.19;45037.66;5069646;28;20440;-52
2023/08/17 00:51:42;;;;;;;5.40;3.30;;;;;;;-143.84;62.88;45033.84;5069406;28;20441;-52
2023/08/17 00:54:12;;;;;;;9.93;3.43;;;;;;;-143.84;62.59;45024.31;5069784;28;20491;-52
2023/08/17 00:56:39;;;;;;;10.43;3.60;;;;;;;-143.84;62.46;45037.66;5069809;28;20556;-50
2023/08/17 00:59:06;;;;;;;3.70;3.40;;;;;;;-143.84;62.49;45041.44;5070028;28;20451;-51
2023/08/17 01:01:33;;;;;;;10.53;4.20;;;;;;;-143.84;62.02;45052.88;5069725;28;20635;-52
2023/08/17 01:04:01;;;;;;;7.40;3.50;;;;;;;-143.84;62.04;45031.94;5069839;28;21101;-51
2023/08/17 01:06:28;;;;;;;6.33;3.43;;;;;;;-143.84;61.92;45028.13;5069612;28;20440;-51
2023/08/17 01:08:55;;;;;;;3.97;3.40;;;;;;;-143.84;61.72;45020.50;5069766;28;20441;-52
2023/08/17 01:11:33;;;;;;;8.50;3.80;;;;;;;-143.84;61.29;45045.25;5069947;28;20487;-52
2023/08/17 01:14:06;;;;;;;7.37;3.30;;;;;;;-143.84;61.17;45018.59;5069798;28;20505;-52
2023/08/17 01:16:38;;;;;;;6.13;3.70;;;;;;;-143.84;61.41;45054.78;5069394;28;20477;-52
2023/08/17 01:19:09;;;;;;;6.47;4.00;;;;;;;-143.84;61.22;45056.69;5069354;28;20472;-52
2023/08/17 01:21:42;;;;;;;4.17;3.03;;;;;;;-143.84;60.86;45037.66;5069364;28;20433;-52
2023/08/17 01:24:12;;;;;;;7.20;3.17;;;;;;;-143.84;60.44;45035.75;5069228;28;20439;-51
2023/08/17 01:26:39;;;;;;;3.23;2.93;;;;;;;-143.84;60.51;45056.69;5069243;28;20444;-52
2023/08/17 01:29:07;;;;;;;3.53;3.20;;;;;;;-143.84;60.50;45030.03;5069413;28;20445;-52
2023/08/17 01:31:41;;;;;;;9.53;3.30;;;;;;;-143.84;60.39;45030.03;5069182;28;20981;-52
2023/08/17 01:34:18;;;;;;;4.43;3.23;;;;;;;-143.84;60.67;45037.66;5073361;28;20444;-52
2023/08/17 01:36:51;;;;;;;12.13;4.00;;;;;;;-143.84;60.54;45043.34;5073177;28;20436;-52
2023/08/17 01:39:23;;;;;;;10.23;4.40;;;;;;;-143.84;60.32;45031.94;5073233;28;20934;-52
2023/08/17 01:41:53;;;;;;;7.20;3.53;;;;;;;-143.84;60.52;45028.13;5073182;28;20502;-53
2023/08/17 01:44:20;;;;;;;3.77;3.43;;;;;;;-143.84;60.74;45031.94;5073475;28;20428;-52
2023/08/17 01:46:47;;;;;;;3.93;3.57;;;;;;;-143.84;60.40;45035.75;5073093;28;20436;-51
2023/08/17 01:49:14;;;;;;;8.50;3.73;;;;;;;-143.84;60.69;45043.34;5072988;28;20780;-52
2023/08/17 01:51:41;;;;;;;4.43;3.47;;;;;;;-143.84;60.95;44999.56;5073003;28;20436;-52
2023/08/17 01:54:09;;;;;;;7.83;3.43;;;;;;;-143.84;60.64;45037.66;5072870;28;20989;-52
2023/08/17 01:56:38;;;;;;;4.10;3.60;;;;;;;-143.84;60.31;45033.84;5073074;28;21138;-51
2023/08/17 01:59:05;;;;;;;8.23;4.00;;;;;;;-143.84;59.87;45037.66;5072729;28;20456;-52
2023/08/17 02:01:32;;;;;;;3.87;3.30;;;;;;;-143.84;59.81;45050.97;5072483;28;20492;-52
2023/08/17 02:04:02;;;;;;;5.60;3.60;;;;;;;-143.84;59.59;45054.78;5072872;28;20440;-52
2023/08/17 02:06:29;;;;;;;4.80;4.23;;;;;;;-143.84;59.02;45024.31;5072335;28;20527;-51
2023/08/17 02:08:56;;;;;;;12.00;3.60;;;;;;;-143.84;59.27;45033.84;5072557;28;20441;-53
2023/08/17 02:11:23;;;;;;;6.23;3.50;;;;;;;-143.84;59.32;45041.44;5072885;28;20436;-52
2023/08/17 02:13:52;;;;;;;4.03;3.63;;;;;;;-143.84;59.26;44999.56;5072502;28;20444;-52
2023/08/17 02:16:19;;;;;;;7.63;3.63;;;;;;;-143.84;59.61;45033.84;5072231;28;20510;-51
2023/08/17 02:18:46;;;;;;;5.37;3.50;;;;;;;-143.84;59.96;45030.03;5072456;28;20444;-51
2023/08/17 02:21:13;;;;;;;8.13;4.50;;;;;;;-143.84;60.03;45039.53;5072395;28;20781;-52
2023/08/17 02:23:40;;;;;;;4.43;3.60;;;;;;;-143.84;60.56;45030.03;5072422;28;20494;-52
2023/08/17 02:26:07;;;;;;;13.53;4.10;;;;;;;-143.84;60.75;45018.59;5072428;28;20961;-51
2023/08/17 02:28:34;;;;;;;5.00;4.10;;;;;;;-143.84;61.18;45022.41;5072181;28;20437;-53
2023/08/17 02:31:03;;;;;;;5.17;3.90;;;;;;;-143.84;61.55;45030.03;5072398;28;20938;-52
2023/08/17 02:33:30;;;;;;;7.40;3.73;;;;;;;-143.84;61.65;45030.03;5072505;28;20429;-52
2023/08/17 02:35:57;;;;;;;9.50;4.60;;;;;;;-143.84;61.67;45035.75;5072283;28;20480;-51
2023/08/17 02:38:24;;;;;;;6.13;4.27;;;;;;;-143.84;62.17;45031.94;5072134;28;20948;-52
2023/08/17 02:40:51;;;;;;;4.13;3.83;;;;;;;-143.84;62.36;45005.28;5072330;28;20490;-52
2023/08/17 02:43:18;;;;;;;10.70;4.70;;;;;;;-143.84;63.01;45052.88;5071736;28;20881;-51
2023/08/17 02:45:46;;;;;;;9.23;4.13;;;;;;;-143.84;63.09;45037.66;5072156;28;20444;-50
2023/08/17 02:48:14;;;;;;;4.93;4.53;;;;;;;-143.84;63.19;45045.25;5072125;28;20491;-52
2023/08/17 02:50:41;;;;;;;7.63;4.60;;;;;;;-143.84;63.74;45031.94;5071728;28;20498;-52
2023/08/17 02:53:08;;;;;;;4.67;4.17;;;;;;;-143.84;64.11;45010.97;5071112;28;20466;-52
2023/08/17 02:55:35;;;;;;;4.33;3.87;;;;;;;-143.84;64.29;45035.75;5071533;28;20480;-52
2023/08/17 02:58:02;;;;;;;5.23;4.67;;;;;;;-143.84;64.50;45070.00;5071541;28;20440;-50
2023/08/17 03:00:30;;;;;;;6.00;4.23;;;;;;;-143.84;64.84;45018.59;5071073;28;20520;-52
2023/08/17 03:02:57;;;;;;;5.20;4.70;;;;;;;-143.84;65.13;45047.16;5071599;28;20448;-52
2023/08/17 03:05:25;;;;;;;6.47;4.40;;;;;;;-143.84;65.07;45037.66;5071760;28;20429;-52
2023/08/17 03:07:52;;;;;;;9.23;4.77;;;;;;;-143.84;64.82;45028.13;5071532;28;20471;-51
2023/08/17 03:10:19;;;;;;;11.87;4.53;;;;;;;-143.84;65.08;45031.94;5071927;28;20926;-52
2023/08/17 03:12:46;;;;;;;6.20;4.33;;;;;;;-143.84;65.79;45037.66;5071621;28;20935;-52
2023/08/17 03:15:14;;;;;;;7.87;4.67;;;;;;;-143.84;65.88;45039.53;5071254;28;20477;-51
2023/08/17 03:17:41;;;;;;;4.53;4.13;;;;;;;-143.84;65.67;45041.44;5071543;28;20953;-52
2023/08/17 03:20:09;;;;;;;5.00;4.47;;;;;;;-143.84;65.93;45026.22;5071481;28;20433;-51
2023/08/17 03:22:37;;;;;;;6.50;4.60;;;;;;;-143.84;65.66;45041.44;5071619;28;20437;-52
2023/08/17 03:25:06;;;;;;;9.23;5.67;;;;;;;-143.84;65.80;45039.53;5071612;28;20448;-52
2023/08/17 03:27:33;;;;;;;4.87;4.40;;;;;;;-143.84;66.18;45045.25;5071214;28;20444;-52
2023/08/17 03:30:00;;;;;;;7.60;4.50;;;;;;;-143.84;66.36;45041.44;5071204;28;20491;-52
2023/08/17 03:32:27;;;;;;;6.13;5.40;;;;;;;-143.84;66.69;45043.34;5070920;28;20437;-52
2023/08/17 03:34:54;;;;;;;6.83;4.53;;;;;;;-143.84;66.56;45054.78;5070884;28;21254;-52
2023/08/17 03:37:20;;;;;;;9.23;4.67;;;;;;;-143.84;66.54;45030.03;5071132;28;20437;-52
2023/08/17 03:39:49;;;;;;;8.77;5.00;;;;;;;-143.84;66.75;45026.22;5070865;28;20463;-52
2023/08/17 03:42:16;;;;;;;12.30;5.20;;;;;;;-143.84;66.72;45037.66;5071206;28;20501;-51
2023/08/17 03:44:43;;;;;;;7.57;5.03;;;;;;;-143.84;67.13;45024.31;5070703;28;20492;-51
2023/08/17 03:47:10;;;;;;;4.67;4.27;;;;;;;-143.84;67.07;45056.69;5071202;28;20433;-52
2023/08/17 03:49:37;;;;;;;15.70;5.37;;;;;;;-143.84;67.68;45039.53;5070814;28;20443;-51
2023/08/17 03:52:04;;;;;;;10.30;4.80;;;;;;;-143.84;67.99;45043.34;5070585;28;20436;-52
2023/08/17 03:54:32;;;;;;;6.10;4.70;;;;;;;-143.84;67.65;45037.66;5070207;28;20444;-52
2023/08/17 03:57:00;;;;;;;6.57;5.33;;;;;;;-143.84;67.40;45003.38;5070448;28;20487;-52
2023/08/17 03:59:27;;;;;;;5.60;4.70;;;;;;;-143.84;66.91;45005.28;5070639;28;20528;-52
2023/08/17 04:01:54;;;;;;;7.13;4.50;;;;;;;-143.84;66.69;45050.97;5070374;28;20433;-52
2023/08/17 04:04:21;;;;;;;8.63;5.03;;;;;;;-143.84;66.47;45022.41;5070349;28;20440;-53
2023/08/17 04:06:48;;;;;;;7.33;5.37;;;;;;;-143.84;66.12;45033.84;5070544;28;20463;-52
2023/08/17 04:09:16;;;;;;;8.57;5.17;;;;;;;-143.84;65.94;44995.75;5070671;28;20437;-53
2023/08/17 04:11:43;;;;;;;8.63;4.90;;;;;;;-143.84;66.06;45045.25;5070664;28;20479;-52
2023/08/17 04:14:12;;;;;;;10.20;5.90;;;;;;;-143.84;66.30;45024.31;5070588;28;20537;-52
2023/08/17 04:16:39;;;;;;;6.20;4.80;;;;;;;-143.84;66.47;45012.88;5070575;28;20483;-53
2023/08/17 04:19:06;;;;;;;6.90;5.30;;;;;;;-143.84;66.79;45049.06;5070322;28;20444;-52
2023/08/17 04:21:33;;;;;;;9.17;4.87;;;;;;;-143.84;66.42;45003.38;5070677;28;20428;-51
2023/08/17 04:24:00;;;;;;;10.63;6.00;;;;;;;-143.84;66.63;45031.94;5070401;28;20447;-53
2023/08/17 04:26:28;;;;;;;8.37;5.50;;;;;;;-143.84;66.76;45054.78;5070058;28;20836;-52
2023/08/17 04:28:55;;;;;;;8.60;4.93;;;;;;;-143.84;65.96;45052.88;5070620;28;20443;-52
2023/08/17 04:31:24;;;;;;;11.83;5.77;;;;;;;-143.84;66.14;45033.84;5070118;28;20437;-52
2023/08/17 04:33:52;;;;;;;11.53;5.30;;;;;;;-143.84;66.16;44999.56;5070272;28;20441;-52
2023/08/17 04:36:20;;;;;;;12.53;5.63;;;;;;;-143.84;66.48;45014.78;5070084;28;20473;-52
2023/08/17 04:38:47;;;;;;;11.20;5.83;;;;;;;-143.84;65.84;45001.47;5070260;28;20451;-53
2023/08/17 04:41:14;;;;;;;5.87;5.10;;;;;;;-143.84;65.45;45005.28;5070024;28;20440;-52
2023/08/17 04:43:42;;;;;;;6.40;5.47;;;;;;;-143.84;64.56;45016.69;5070319;28;20846;-53
2023/08/17 04:46:10;;;;;;;8.63;4.77;;;;;;;-143.84;63.29;45010.97;5070164;28;20448;-53
2023/08/17 04:48:38;;;;;;;7.23;5.20;;;;;;;-143.84;61.85;44997.66;5070081;28;20463;-52
2023/08/17 04:51:05;;;;;;;12.20;4.80;;;;;;;-143.84;60.00;44999.56;5070032;28;20452;-53
2023/08/17 04:53:32;;;;;;;9.87;5.80;;;;;;;-143.84;58.11;45009.09;5069822;28;20467;-53
2023/08/17 04:56:00;;;;;;;7.33;5.60;;;;;;;-143.84;57.28;44978.63;5069773;28;20476;-52
2023/08/17 04:58:27;;;;;;;6.80;5.20;;;;;;;-143.84;57.19;44980.53;5069776;28;20443;-53
2023/08/17 05:00:54;;;;;;;13.50;4.80;;;;;;;-143.84;57.34;44986.22;5069861;28;20558;-53
2023/08/17 05:03:21;;;;;;;11.07;6.00;;;;;;;-143.84;56.86;44988.13;5069658;28;20809;-53
2023/08/17 05:05:50;;;;;;;8.73;5.13;;;;;;;-143.84;56.23;44969.09;5069985;28;20429;-52
2023/08/17 05:08:17;;;;;;;6.83;4.67;;;;;;;-143.84;55.75;44978.63;5074079;28;20444;-52
2023/08/17 05:10:44;;;;;;;8.30;5.30;;;;;;;-143.84;55.46;44978.63;5073693;28;20799;-51
2023/08/17 05:13:12;;;;;;;8.10;5.50;;;;;;;-143.84;54.82;44929.09;5073937;28;20437;-53
2023/08/17 05:15:39;;;;;;;10.03;5.00;;;;;;;-143.84;53.84;44963.38;5073824;28;20525;-53
2023/08/17 05:18:06;;;;;;;10.90;5.40;;;;;;;-143.84;51.65;44972.91;5073985;28;20433;-53
2023/08/17 05:20:33;;;;;;;12.40;5.57;;;;;;;-143.84;51.00;44934.81;5073615;28;20451;-52
2023/08/17 05:23:02;;;;;;;9.33;5.50;;;;;;;-143.84;49.72;44919.59;5074010;28;20436;-53
2023/08/17 05:25:29;;;;;;;13.50;5.10;;;;;;;-143.84;50.15;44938.63;5073233;28;20491;-53
2023/08/17 05:27:56;;;;;;;6.80;5.33;;;;;;;-143.84;49.80;44963.38;5073755;28;20440;-53
2023/08/17 05:30:23;;;;;;;8.20;4.77;;;;;;;-143.84;49.55;44984.31;5073447;28;20437;-52
2023/08/17 05:32:50;;;;;;;9.67;5.00;;;;;;;-143.84;49.68;44967.19;5073332;28;20494;-52
2023/08/17 05:35:18;;;;;;;6.03;5.07;;;;;;;-143.84;49.31;44946.25;5073353;28;20451;-53
2023/08/17 05:37:45;;;;;;;7.87;4.60;;;;;;;-143.84;49.59;44950.06;5073509;28;20433;-52
2023/08/17 05:40:14;;;;;;;5.23;4.73;;;;;;;-143.84;50.16;44951.97;5073247;28;20443;-52
2023/08/17 05:42:41;;;;;;;7.00;5.23;;;;;;;-143.84;50.02;44950.06;5073357;28;20444;-53
2023/08/17 05:45:10;;;;;;;8.37;5.30;;;;;;;-143.84;50.28;44961.47;5073661;28;20502;-53
2023/08/17 05:47:37;;;;;;;10.07;5.70;;;;;;;-143.84;49.85;44972.91;5073126;28;20950;-53
2023/08/17 05:50:04;;;;;;;9.10;5.03;;;;;;;-143.84;50.84;44948.16;5072953;28;20437;-53
2023/08/17 05:52:32;;;;;;;6.30;5.30;;;;;;;-143.84;50.99;44940.53;5073193;28;20448;-52
2023/08/17 05:54:59;;;;;;;9.27;6.03;;;;;;;-143.84;49.34;44931.00;5073103;28;20440;-52
2023/08/17 05:57:28;;;;;;;8.10;5.40;;;;;;;-143.84;49.33;44965.28;5072758;28;20476;-52
2023/08/17 05:59:55;;;;;;;9.03;5.40;;;;;;;-143.84;49.42;44961.47;5072845;28;20484;-53
2023/08/17 06:02:22;;;;;;;8.27;6.23;;;;;;;-143.84;48.47;44932.91;5073010;28;20436;-53
2023/08/17 06:04:49;;;;;;;15.03;5.33;;;;;;;-143.84;47.72;44931.00;5072857;28;20444;-51
2023/08/17 06:07:16;;;;;;;12.03;6.27;;;;;;;-143.84;47.15;44929.09;5072913;28;20947;-52
2023/08/17 06:09:44;;;;;;;7.90;6.10;;;;;;;-143.84;46.91;44929.09;5072722;28;20441;-52
2023/08/17 06:12:11;;;;;;;10.03;5.90;;;;;;;-143.84;46.35;44919.59;5072776;28;20445;-52
2023/08/17 06:14:40;;;;;;;12.47;5.60;;;;;;;-143.84;46.57;44934.81;5072813;28;20850;-52
2023/08/17 06:17:07;;;;;;;9.23;5.53;;;;;;;-143.84;45.96;44925.31;5072543;28;20465;-53
2023/08/17 06:19:34;;;;;;;12.63;5.73;;;;;;;-143.84;45.40;44910.06;5071935;28;20445;-52
2023/08/17 06:22:01;;;;;;;11.37;5.60;;;;;;;-143.84;44.56;44892.94;5072607;28;20433;-52
2023/08/17 06:24:28;;;;;;;7.37;5.43;;;;;;;-143.84;44.61;44921.50;5072245;28;20437;-53
2023/08/17 06:26:55;;;;;;;16.47;6.27;;;;;;;-143.84;45.10;44887.22;5072264;28;20429;-53
2023/08/17 06:29:22;;;;;;;14.50;6.40;;;;;;;-143.84;43.84;44870.09;5072262;28;20441;-53
2023/08/17 06:31:51;;;;;;;15.40;6.00;;;;;;;-143.84;44.28;44887.22;5072280;28;20437;-53
2023/08/17 06:34:18;;;;;;;10.20;6.13;;;;;;;-143.84;43.42;44866.28;5072422;28;20449;-53
2023/08/17 06:36:58;;;;;;;9.60;5.30;;;;;;;-143.84;43.19;44845.31;5072296;28;20499;-53
2023/08/17 06:39:25;;;;;;;13.63;6.17;;;;;;;-143.84;43.18;44849.13;5071998;28;20467;-53
2023/08/17 06:41:52;;;;;;;11.70;5.40;;;;;;;-143.84;43.02;44881.50;5071906;28;20436;-52
2023/08/17 06:44:19;;;;;;;12.63;5.20;;;;;;;-143.84;43.47;44870.09;5072398;28;20946;-53
2023/08/17 06:46:47;;;;;;;13.03;5.90;;;;;;;-143.84;43.94;44894.84;5072310;28;20526;-52
2023/08/17 06:49:16;;;;;;;12.07;6.10;;;;;;;-143.84;44.11;44911.97;5072072;28;20494;-52
2023/08/17 06:51:43;;;;;;;13.37;5.63;;;;;;;-143.84;44.58;44889.13;5071788;28;20505;-53
2023/08/17 06:54:10;;;;;;;5.73;5.13;;;;;;;-143.84;44.40;44898.66;5071838;28;20437;-53
2023/08/17 06:56:37;;;;;;;7.80;5.43;;;;;;;-143.84;44.16;44904.34;5071758;28;20483;-53
2023/08/17 06:59:04;;;;;;;10.30;5.23;;;;;;;-143.84;44.38;44892.94;5072007;28;20925;-53
2023/08/17 07:01:32;;;;;;;12.10;5.57;;;;;;;-143.84;44.87;44862.47;5071412;28;20480;-52
2023/08/17 07:03:59;;;;;;;8.00;5.67;;;;;;;-143.84;44.55;44879.59;5071485;28;20444;-53
2023/08/17 07:06:28;;;;;;;12.63;5.33;;;;;;;-143.84;43.33;44879.59;5071836;28;20494;-52
2023/08/17 07:08:56;;;;;;;7.63;4.77;;;;;;;-143.84;42.94;44889.13;5072137;28;20430;-53
2023/08/17 07:11:23;;;;;;;8.53;4.97;;;;;;;-143.84;42.74;44879.59;5071510;28;20437;-53
2023/08/17 07:13:50;;;;;;;8.10;5.10;;;;;;;-143.84;42.73;44862.47;5071602;28;20444;-53
2023/08/17 07:16:18;;;;;;;11.80;5.70;;;;;;;-143.84;42.79;44839.63;5071630;28;20866;-53
2023/08/17 07:18:45;;;;;;;6.70;4.90;;;;;;;-143.84;43.04;44866.28;5071754;28;20945;-53
2023/08/17 07:21:12;;;;;;;11.83;5.47;;;;;;;-143.84;41.82;44870.09;5071134;28;20448;-53
2023/08/17 07:23:45;;;;;;;9.53;5.33;;;;;;;-143.84;41.99;44870.09;5071139;28;20444;-53
2023/08/17 07:26:12;;;;;;;9.23;4.93;;;;;;;-143.84;42.40;44835.81;5071443;28;20441;-53
2023/08/17 07:28:39;;;;;;;10.57;4.93;;;;;;;-143.84;41.87;44851.03;5071364;28;20448;-52
2023/08/17 07:31:06;;;;;;;11.63;5.03;;;;;;;-143.84;41.09;44837.72;5070315;28;20502;-53
2023/08/17 07:33:33;;;;;;;8.57;5.47;;;;;;;-143.84;41.18;44839.63;5070978;28;20435;-52
2023/08/17 07:36:00;;;;;;;8.67;5.23;;;;;;;-143.84;41.28;44835.81;5070412;28;21333;-52
2023/08/17 07:38:28;;;;;;;11.73;5.70;;;;;;;-143.84;40.61;44841.53;5070982;28;20453;-53
2023/08/17 07:40:57;;;;;;;6.50;5.27;;;;;;;-143.84;41.13;44837.72;5070980;28;21321;-53
2023/08/17 07:43:24;;;;;;;6.20;4.80;;;;;;;-143.84;40.45;44824.38;5070693;28;20448;-53
2023/08/17 07:45:55;;;;;;;8.90;5.37;;;;;;;-143.84;40.57;44822.47;5070570;28;20441;-53
2023/08/17 07:48:23;;;;;;;14.33;5.23;;;;;;;-143.84;40.02;44820.56;5070632;28;20445;-53
2023/08/17 07:50:51;;;;;;;7.57;4.80;;;;;;;-143.84;40.00;44811.06;5070522;28;20997;-53
2023/08/17 07:53:18;;;;;;;9.97;4.73;;;;;;;-143.84;40.04;44822.47;5070464;28;21005;-53
2023/08/17 07:55:46;;;;;;;13.70;6.67;;;;;;;-143.84;40.19;44854.84;5070764;28;20447;-53
2023/08/17 07:58:14;;;;;;;6.93;5.27;;;;;;;-143.84;40.26;44832.00;5070298;28;20567;-52
2023/08/17 08:00:41;;;;;;;10.47;5.50;;;;;;;-143.84;40.23;44835.81;5070180;28;20485;-53
2023/08/17 08:03:08;;;;;;;6.67;4.57;;;;;;;-143.84;39.82;44852.94;5070601;28;20445;-53
2023/08/17 08:05:36;;;;;;;9.67;5.63;;;;;;;-143.84;39.76;44828.19;5070458;28;20432;-53
2023/08/17 08:08:03;;;;;;;10.07;5.30;;;;;;;-143.84;39.96;44866.28;5070326;28;20962;-53
2023/08/17 08:10:30;;;;;;;8.07;4.80;;;;;;;-143.84;39.90;44835.81;5070681;28;20937;-52
2023/08/17 08:12:57;;;;;;;6.83;4.97;;;;;;;-143.84;40.30;44833.91;5070264;28;20926;-53
2023/08/17 08:15:26;;;;;;;8.47;5.10;;;;;;;-143.84;39.83;44812.97;5070517;28;20499;-52
2023/08/17 08:17:53;;;;;;;15.60;5.67;;;;;;;-143.84;39.25;44839.63;5063030;28;20492;-53
2023/08/17 08:20:21;;;;;;;16.33;5.17;;;;;;;-143.84;39.58;44849.13;5051327;28;20446;-52
2023/08/17 08:22:48;;;;;;;12.10;5.20;;;;;;;-143.84;39.35;44833.91;5050337;28;20426;-53
2023/08/17 08:25:15;;;;;;;11.00;5.70;;;;;;;-143.84;39.09;44807.25;5050258;28;20441;-53
2023/08/17 08:27:42;;;;;;;12.40;5.27;;;;;;;-143.84;38.89;44811.06;5050196;28;20997;-53
2023/08/17 08:30:10;;;;;;;14.30;4.93;;;;;;;-143.84;39.24;44847.22;5050299;28;20437;-53
2023/08/17 08:32:38;;;;;;;7.67;5.10;;;;;;;-143.84;39.77;44843.44;5049839;28;20438;-52
2023/08/17 08:35:06;;;;;;;15.73;4.80;;;;;;;-143.84;39.41;44866.28;5049873;28;20499;-52
2023/08/17 08:37:34;;;;;;;9.20;5.77;;;;;;;-143.84;39.59;44860.56;5050223;28;20482;-53
2023/08/17 08:40:01;;;;;;;12.23;5.03;;;;;;;-143.84;39.49;44833.91;5050481;28;20430;-52
2023/08/17 08:42:28;;;;;;;6.17;4.60;;;;;;;-143.84;39.59;44822.47;5049821;28;20445;-53
2023/08/17 08:44:56;;;;;;;16.43;5.20;;;;;;;-143.84;38.81;44824.38;5049760;28;20445;-53
2023/08/17 08:47:25;;;;;;;8.83;4.40;;;;;;;-143.84;38.83;44843.44;5049269;28;20495;-53
2023/08/17 08:50:01;;;;;;;4.43;4.03;;;;;;;-143.84;39.26;44820.56;5050162;28;20438;-53
2023/08/17 08:52:34;;;;;;;9.63;4.73;;;;;;;-143.84;38.85;44824.38;5049755;28;20460;-53
2023/08/17 08:55:10;;;;;;;10.60;4.90;;;;;;;-143.84;38.70;44841.53;5049831;28;20453;-52
2023/08/17 08:57:38;;;;;;;7.93;4.10;;;;;;;-143.84;38.85;44864.38;5049934;28;20481;-52
2023/08/17 09:00:07;;;;;;;13.73;4.10;;;;;;;-143.84;39.18;44830.09;5049492;28;20477;-52
2023/08/17 09:02:36;;;;;;;9.03;4.50;;;;;;;-143.84;38.65;44868.19;5049700;28;20499;-52
2023/08/17 09:05:09;;;;;;;8.70;4.10;;;;;;;-143.84;38.54;44835.81;5049775;28;20974;-53
2023/08/17 09:07:38;;;;;;;8.53;4.40;;;;;;;-143.84;38.22;44780.59;5049790;28;20985;-53
2023/08/17 09:10:06;;;;;;;6.23;4.00;;;;;;;-143.84;37.83;44809.16;5049935;28;20498;-52
2023/08/17 09:12:33;;;;;;;12.77;4.10;;;;;;;-143.84;37.94;44799.63;5049507;28;20430;-53
2023/08/17 09:15:00;;;;;;;6.00;4.50;;;;;;;-143.84;37.90;44839.63;5049726;28;20489;-52
2023/08/17 09:17:28;;;;;;;8.60;4.30;;;;;;;-143.84;37.99;44830.09;5049739;28;20477;-53
2023/08/17 09:19:56;;;;;;;6.57;3.90;;;;;;;-143.84;38.20;44816.78;5049727;28;20435;-53
2023/08/17 09:22:39;;;;;;;7.10;4.70;;;;;;;-143.84;38.58;44832.00;5049548;28;20815;-53
2023/08/17 09:25:07;;;;;;;6.10;4.13;;;;;;;-143.84;38.62;44826.28;5049845;28;20992;-52
2023/08/17 09:27:34;;;;;;;13.70;4.40;;;;;;;-143.84;37.64;44833.91;5049820;28;20438;-52
2023/08/17 09:30:06;;;;;;;8.20;4.03;;;;;;;-143.84;38.55;44832.00;5049498;28;20861;-53
2023/08/17 09:32:33;;;;;;;7.40;4.70;;;;;;;-143.84;38.13;44805.34;5049929;28;20578;-53
2023/08/17 09:35:03;;;;;;;5.33;4.20;;;;;;;-143.84;37.24;44824.38;5049589;28;20438;-52
2023/08/17 09:37:32;;;;;;;3.97;3.57;;;;;;;-143.84;37.44;44862.47;5049747;28;20513;-52
2023/08/17 09:39:59;;;;;;;7.27;4.50;;;;;;;-143.84;38.09;44822.47;5049691;28;20438;-53
2023/08/17 09:42:27;;;;;;;11.93;4.83;;;;;;;-143.84;37.65;44807.25;5049489;28;20923;-53
2023/08/17 09:44:55;;;;;;;63.03;14.77;;;;;;;-143.84;37.95;44832.00;5049277;28;20488;-52
2023/08/17 09:47:23;;;;;;;6.20;4.77;;;;;;;-143.84;37.70;44833.91;5049583;28;20430;-53
2023/08/17 09:49:52;;;;;;;4.90;4.27;;;;;;;-143.84;37.44;44818.66;5049355;28;20445;-52
2023/08/17 09:52:20;;;;;;;21.83;8.53;;;;;;;-143.84;37.74;44788.22;5049455;28;20496;-53
2023/08/17 09:54:48;;;;;;;10.60;4.00;;;;;;;-143.84;36.99;44822.47;5052536;28;20943;-53
2023/08/17 09:57:17;;;;;;;15.80;4.20;;;;;;;-143.84;36.55;44807.25;5052864;28;20469;-53
2023/08/17 09:59:44;;;;;;;7.00;3.90;;;;;;;-143.84;37.04;44795.81;5052153;28;20575;-53
2023/08/17 10:02:19;;;;;;;14.83;4.33;;;;;;;-143.84;36.85;44790.13;5053160;28;20438;-53
2023/08/17 10:04:52;;;;;;;5.27;3.97;;;;;;;-143.84;37.34;44774.88;5052963;28;20571;-53
2023/08/17 10:07:21;;;;;;;10.53;4.57;;;;;;;-143.84;37.09;44772.97;5053289;28;20456;-53
2023/08/17 10:09:57;;;;;;;15.60;4.80;;;;;;;-143.84;35.89;44818.66;5052889;28;20449;-53
2023/08/17 10:12:29;;;;;;;8.53;3.87;;;;;;;-143.84;37.27;44824.38;5052676;28;20846;-53
2023/08/17 10:15:00;;;;;;;6.13;4.10;;;;;;;-143.84;37.01;44797.72;5052653;28;20516;-53
2023/08/17 10:17:28;;;;;;;6.80;4.10;;;;;;;-143.84;37.36;44795.81;5059097;28;20468;-53
2023/08/17 10:19:59;;;;;;;4.70;4.30;;;;;;;-143.84;37.37;44799.63;5060308;28;20868;-55
2023/08/17 10:22:31;;;;;;;8.07;4.30;;;;;;;-143.84;37.32;44835.81;5051695;28;20957;-55
2023/08/17 10:25:02;;;;;;;6.30;4.50;;;;;;;-143.84;37.90;44833.91;5051575;28;20775;-55
2023/08/17 10:27:30;;;;;;;16.17;4.70;;;;;;;-143.84;37.68;44843.44;5051342;28;20444;-55
2023/08/17 10:29:59;;;;;;;9.23;4.50;;;;;;;-143.84;37.66;44839.63;5051154;28;20425;-55
2023/08/17 10:32:27;;;;;;;9.23;4.70;;;;;;;-143.84;38.46;44839.63;5085313;28;20439;-55
2023/08/17 10:34:54;;;;;;;10.80;4.40;;;;;;;-143.84;38.35;44839.63;5091388;28;20440;-55
2023/08/17 10:37:24;;;;;;;10.37;4.77;;;;;;;-143.84;38.00;44835.81;5091308;28;20479;-56
2023/08/17 10:39:52;;;;;;;12.50;5.60;;;;;;;-143.84;37.89;44824.38;5091269;28;20446;-54
2023/08/17 10:42:33;;;;;;;7.27;4.43;;;;;;;-143.84;38.28;44807.25;5091374;28;21285;-55
2023/08/17 10:45:01;;;;;;;10.33;4.63;;;;;;;-143.84;38.91;44824.38;5091667;28;20436;-56
2023/08/17 10:47:30;;;;;;;9.77;4.50;;;;;;;-143.84;38.12;44837.72;5080741;28;20473;-55
2023/08/17 10:49:59;;;;;;;7.93;5.10;;;;;;;-143.84;38.72;44864.38;5059694;28;20453;-55
2023/08/17 10:52:28;;;;;;;12.70;5.60;;;;;;;-143.84;38.83;44837.72;5050861;28;20442;-56
2023/08/17 10:54:56;;;;;;;6.57;5.30;;;;;;;-143.84;39.06;44885.31;5050664;28;20521;-56
2023/08/17 10:57:33;;;;;;;9.50;4.60;;;;;;;-143.84;39.57;44871.97;5050696;28;20469;-56
2023/08/17 11:00:10;;;;;;;6.33;5.30;;;;;;;-143.84;39.88;44852.94;5050495;28;20488;-56
2023/08/17 11:02:38;;;;;;;13.40;6.57;;;;;;;-143.84;39.56;44839.63;5050668;28;20471;-56
2023/08/17 11:05:07;;;;;;;6.90;5.00;;;;;;;-143.84;39.92;44858.66;5050501;28;20434;-56
2023/08/17 11:07:41;;;;;;;7.50;4.90;;;;;;;-143.84;40.32;44849.13;5050863;28;20468;-56
2023/08/17 11:10:29;;;;;;;5.93;5.27;;;;;;;-143.84;40.12;44849.13;5050913;28;20914;-56
2023/08/17 11:13:01;;;;;;;8.80;4.77;;;;;;;-143.84;40.24;44851.03;5050324;28;20453;-56
2023/08/17 11:15:38;;;;;;;7.50;5.50;;;;;;;-143.84;40.32;44864.38;5050033;28;21341;-56
2023/08/17 11:18:07;;;;;;;6.03;4.60;;;;;;;-143.84;40.49;44866.28;5050267;28;20591;-56